METAR for South-East England Channel Islands and France - 12 Dec 2017 - 2348 UTC - RocketRoute WX - rrwx.com
LFOB 122330Z AUTO 19008KT CAVOK 04/02 Q1013 BECMG BKN012 LFBD 122330Z AUTO 19005KT 9999 FEW041 BKN056 05/04 Q1020 EGHH   LFRB 122330Z AUTO 22020KT 9000 OVC004 10/10 Q1009 TEMPO 24015G25KT 3000 -RA LFRK 122330Z AUTO 19012KT 9999 FEW046 OVC100 06/03 Q1011 LFRC 122330Z AUTO 20017KT 7000 -DZ SCT009 BKN017 BKN032 07/05 Q1008 LFRG 122330Z AUTO 21012KT CAVOK 05/03 Q1011 LFRD 122330Z AUTO 18012KT CAVOK 07/05 Q1010 TEMPO 3000 RA BKN005 BECMG 19015G25KT EGLF   EGJB   EGJJ 122320Z AUTO 19014KT 9999 FEW015/// BKN020/// OVC025/// 08/07 Q1009 REDZ LFPB 122330Z AUTO 20010KT CAVOK 05/02 Q1015 NOSIG LFRM 122330Z AUTO 18006KT 140V210 9999 SCT041 BKN100 BKN220 05/03 Q1015 LFQQ 122330Z AUTO 17011KT CAVOK 02/01 Q1012 BECMG BKN012 EGGW 122320Z AUTO 19009KT 150V210 6000 -RA FEW004/// SCT012/// BKN035/// //////TCU 03/03 Q1004 EGLC 122320Z AUTO 18005KT 150V220 9999 -RA BKN032 07/04 Q1006 EGKK 122320Z 21006KT 9999 -RA BKN023 BKN029 07/05 Q1006 EGLL 122320Z AUTO 19009KT 170V240 9999 -RA SCT028 SCT033 BKN044TCU 06/04 Q1005 TEMPO 6000 -RA BKN012 EGSS 122320Z AUTO 17010KT 9999 -RA BKN025/// OVC030/// //////TCU 03/02 Q1005 LFPO 122330Z 20007KT 9999 FEW010 BKN130 03/01 Q1015 LFPG 122330Z 20010KT CAVOK 03/02 Q1014 LFRN 122330Z AUTO 18012KT CAVOK 07/05 Q1012 BECMG RA BKN010 EGHI   EGMC 122250Z 19011KT 9999 -RA FEW020 BKN044 06/03 Q1006 LFPN 122330Z AUTO 20011KT 9999 SCT008 OVC120 03/02 Q1014

RocketRoute WX - rrwx.com weather for pilots